sensor_id;sensor_type;location;lat;lon;timestamp;P1;durP1;ratioP1;P2;durP2;ratioP2
22614;SDS011;11474;50.790;0.298;2023-08-01T00:01:09;16.52;;;4.80;;
22614;SDS011;11474;50.790;0.298;2023-08-01T00:03:36;13.82;;;4.90;;
22614;SDS011;11474;50.790;0.298;2023-08-01T00:06:02;13.82;;;4.90;;
22614;SDS011;11474;50.790;0.298;2023-08-01T00:08:29;14.30;;;5.10;;
22614;SDS011;11474;50.790;0.298;2023-08-01T00:10:55;14.52;;;5.00;;
22614;SDS011;11474;50.790;0.298;2023-08-01T00:13:21;14.73;;;4.80;;
22614;SDS011;11474;50.790;0.298;2023-08-01T00:15:47;13.88;;;5.25;;
22614;SDS011;11474;50.790;0.298;2023-08-01T00:18:13;14.75;;;5.03;;
22614;SDS011;11474;50.790;0.298;2023-08-01T00:20:40;12.57;;;4.93;;
22614;SDS011;11474;50.790;0.298;2023-08-01T00:23:06;16.50;;;5.15;;
22614;SDS011;11474;50.790;0.298;2023-08-01T00:25:32;13.48;;;5.45;;
22614;SDS011;11474;50.790;0.298;2023-08-01T00:27:59;17.23;;;4.85;;
22614;SDS011;11474;50.790;0.298;2023-08-01T00:30:25;17.73;;;5.68;;
22614;SDS011;11474;50.790;0.298;2023-08-01T00:32:51;15.48;;;5.35;;
22614;SDS011;11474;50.790;0.298;2023-08-01T00:35:20;15.60;;;5.72;;
22614;SDS011;11474;50.790;0.298;2023-08-01T00:37:47;14.90;;;5.53;;
22614;SDS011;11474;50.790;0.298;2023-08-01T00:40:13;14.55;;;5.45;;
22614;SDS011;11474;50.790;0.298;2023-08-01T00:42:41;15.68;;;5.75;;
22614;SDS011;11474;50.790;0.298;2023-08-01T00:45:08;17.30;;;5.50;;
22614;SDS011;11474;50.790;0.298;2023-08-01T00:47:34;14.70;;;6.00;;
22614;SDS011;11474;50.790;0.298;2023-08-01T00:50:01;18.58;;;6.15;;
22614;SDS011;11474;50.790;0.298;2023-08-01T00:52:27;17.70;;;6.25;;
22614;SDS011;11474;50.790;0.298;2023-08-01T00:54:54;16.13;;;6.03;;
22614;SDS011;11474;50.790;0.298;2023-08-01T00:57:21;14.73;;;6.22;;
22614;SDS011;11474;50.790;0.298;2023-08-01T00:59:47;19.77;;;5.78;;
22614;SDS011;11474;50.790;0.298;2023-08-01T01:02:13;18.07;;;6.57;;
22614;SDS011;11474;50.790;0.298;2023-08-01T01:04:40;15.67;;;5.87;;
22614;SDS011;11474;50.790;0.298;2023-08-01T01:07:07;17.30;;;6.25;;
22614;SDS011;11474;50.790;0.298;2023-08-01T01:09:33;16.77;;;5.90;;
22614;SDS011;11474;50.790;0.298;2023-08-01T01:11:59;15.57;;;5.35;;
22614;SDS011;11474;50.790;0.298;2023-08-01T01:14:26;17.40;;;5.65;;
22614;SDS011;11474;50.790;0.298;2023-08-01T01:16:52;16.38;;;6.25;;
22614;SDS011;11474;50.790;0.298;2023-08-01T01:19:19;17.63;;;5.70;;
22614;SDS011;11474;50.790;0.298;2023-08-01T01:21:46;18.13;;;6.30;;
22614;SDS011;11474;50.790;0.298;2023-08-01T01:24:14;15.98;;;5.70;;
22614;SDS011;11474;50.790;0.298;2023-08-01T01:26:41;18.15;;;5.35;;
22614;SDS011;11474;50.790;0.298;2023-08-01T01:29:08;18.17;;;5.75;;
22614;SDS011;11474;50.790;0.298;2023-08-01T01:31:35;20.05;;;5.40;;
22614;SDS011;11474;50.790;0.298;2023-08-01T01:34:02;18.13;;;5.63;;
22614;SDS011;11474;50.790;0.298;2023-08-01T01:36:29;17.50;;;5.53;;
22614;SDS011;11474;50.790;0.298;2023-08-01T01:38:55;17.17;;;5.68;;
22614;SDS011;11474;50.790;0.298;2023-08-01T01:41:22;20.27;;;6.10;;
22614;SDS011;11474;50.790;0.298;2023-08-01T01:43:48;22.10;;;5.93;;
22614;SDS011;11474;50.790;0.298;2023-08-01T01:46:15;20.33;;;5.60;;
22614;SDS011;11474;50.790;0.298;2023-08-01T01:48:41;19.67;;;6.17;;
22614;SDS011;11474;50.790;0.298;2023-08-01T01:51:08;16.77;;;5.50;;
22614;SDS011;11474;50.790;0.298;2023-08-01T01:53:34;24.58;;;5.25;;
22614;SDS011;11474;50.790;0.298;2023-08-01T01:56:01;18.88;;;5.82;;
22614;SDS011;11474;50.790;0.298;2023-08-01T01:58:27;18.50;;;5.32;;
22614;SDS011;11474;50.790;0.298;2023-08-01T02:00:53;16.67;;;5.43;;
22614;SDS011;11474;50.790;0.298;2023-08-01T02:03:20;17.17;;;4.85;;
22614;SDS011;11474;50.790;0.298;2023-08-01T02:05:46;17.23;;;5.20;;
22614;SDS011;11474;50.790;0.298;2023-08-01T02:08:13;20.77;;;5.47;;
22614;SDS011;11474;50.790;0.298;2023-08-01T02:10:39;17.15;;;5.05;;
22614;SDS011;11474;50.790;0.298;2023-08-01T02:13:06;22.17;;;5.10;;
22614;SDS011;11474;50.790;0.298;2023-08-01T02:15:34;16.90;;;4.93;;
22614;SDS011;11474;50.790;0.298;2023-08-01T02:18:00;20.08;;;4.80;;
22614;SDS011;11474;50.790;0.298;2023-08-01T02:20:27;18.50;;;4.43;;
22614;SDS011;11474;50.790;0.298;2023-08-01T02:22:54;15.68;;;4.65;;
22614;SDS011;11474;50.790;0.298;2023-08-01T02:25:21;20.33;;;5.13;;
22614;SDS011;11474;50.790;0.298;2023-08-01T02:27:47;18.00;;;4.78;;
22614;SDS011;11474;50.790;0.298;2023-08-01T02:30:13;19.33;;;5.10;;
22614;SDS011;11474;50.790;0.298;2023-08-01T02:32:40;17.13;;;4.28;;
22614;SDS011;11474;50.790;0.298;2023-08-01T02:35:07;16.38;;;3.80;;
22614;SDS011;11474;50.790;0.298;2023-08-01T02:37:33;18.90;;;4.33;;
22614;SDS011;11474;50.790;0.298;2023-08-01T02:40:01;18.05;;;4.85;;
22614;SDS011;11474;50.790;0.298;2023-08-01T02:42:28;22.08;;;4.80;;
22614;SDS011;11474;50.790;0.298;2023-08-01T02:44:54;21.70;;;4.47;;
22614;SDS011;11474;50.790;0.298;2023-08-01T02:47:21;19.97;;;4.80;;
22614;SDS011;11474;50.790;0.298;2023-08-01T02:49:47;12.97;;;4.10;;
22614;SDS011;11474;50.790;0.298;2023-08-01T02:52:14;18.92;;;4.45;;
22614;SDS011;11474;50.790;0.298;2023-08-01T02:54:41;23.35;;;5.00;;
22614;SDS011;11474;50.790;0.298;2023-08-01T02:57:07;22.10;;;4.88;;
22614;SDS011;11474;50.790;0.298;2023-08-01T02:59:34;18.85;;;4.90;;
22614;SDS011;11474;50.790;0.298;2023-08-01T03:02:00;17.63;;;4.43;;
22614;SDS011;11474;50.790;0.298;2023-08-01T03:04:26;18.70;;;4.78;;
22614;SDS011;11474;50.790;0.298;2023-08-01T03:06:53;20.40;;;4.75;;
22614;SDS011;11474;50.790;0.298;2023-08-01T03:09:19;18.40;;;4.68;;
22614;SDS011;11474;50.790;0.298;2023-08-01T03:11:46;26.17;;;4.88;;
22614;SDS011;11474;50.790;0.298;2023-08-01T03:14:12;23.90;;;5.78;;
22614;SDS011;11474;50.790;0.298;2023-08-01T03:16:38;18.90;;;4.68;;
22614;SDS011;11474;50.790;0.298;2023-08-01T03:19:05;25.02;;;4.97;;
22614;SDS011;11474;50.790;0.298;2023-08-01T03:21:32;23.77;;;5.15;;
22614;SDS011;11474;50.790;0.298;2023-08-01T03:23:58;20.20;;;5.55;;
22614;SDS011;11474;50.790;0.298;2023-08-01T03:26:25;23.23;;;5.53;;
22614;SDS011;11474;50.790;0.298;2023-08-01T03:28:54;18.08;;;4.68;;
22614;SDS011;11474;50.790;0.298;2023-08-01T03:31:21;19.77;;;4.97;;
22614;SDS011;11474;50.790;0.298;2023-08-01T03:33:47;24.90;;;5.43;;
22614;SDS011;11474;50.790;0.298;2023-08-01T03:36:13;22.50;;;5.30;;
22614;SDS011;11474;50.790;0.298;2023-08-01T03:38:40;26.33;;;5.50;;
22614;SDS011;11474;50.790;0.298;2023-08-01T03:41:06;23.63;;;5.25;;
22614;SDS011;11474;50.790;0.298;2023-08-01T03:43:32;23.48;;;4.88;;
22614;SDS011;11474;50.790;0.298;2023-08-01T03:45:59;18.67;;;4.57;;
22614;SDS011;11474;50.790;0.298;2023-08-01T03:48:28;20.35;;;4.68;;
22614;SDS011;11474;50.790;0.298;2023-08-01T03:50:54;21.55;;;4.35;;
22614;SDS011;11474;50.790;0.298;2023-08-01T03:53:20;20.58;;;4.78;;
22614;SDS011;11474;50.790;0.298;2023-08-01T03:55:47;19.53;;;4.93;;
22614;SDS011;11474;50.790;0.298;2023-08-01T03:58:14;23.30;;;5.20;;
22614;SDS011;11474;50.790;0.298;2023-08-01T04:00:40;23.10;;;4.88;;
22614;SDS011;11474;50.790;0.298;2023-08-01T04:03:06;26.73;;;4.38;;
22614;SDS011;11474;50.790;0.298;2023-08-01T04:05:33;18.30;;;4.65;;
22614;SDS011;11474;50.790;0.298;2023-08-01T04:07:59;18.40;;;5.00;;
22614;SDS011;11474;50.790;0.298;2023-08-01T04:10:25;20.00;;;4.57;;
22614;SDS011;11474;50.790;0.298;2023-08-01T04:12:51;19.52;;;4.43;;
22614;SDS011;11474;50.790;0.298;2023-08-01T04:15:18;14.30;;;3.80;;
22614;SDS011;11474;50.790;0.298;2023-08-01T04:17:44;15.23;;;3.50;;
22614;SDS011;11474;50.790;0.298;2023-08-01T04:20:10;11.70;;;3.53;;
22614;SDS011;11474;50.790;0.298;2023-08-01T04:22:37;16.48;;;3.83;;
22614;SDS011;11474;50.790;0.298;2023-08-01T04:25:04;15.97;;;4.07;;
22614;SDS011;11474;50.790;0.298;2023-08-01T04:27:30;17.48;;;3.70;;
22614;SDS011;11474;50.790;0.298;2023-08-01T04:29:57;15.27;;;3.35;;
22614;SDS011;11474;50.790;0.298;2023-08-01T04:32:24;17.02;;;3.83;;
22614;SDS011;11474;50.790;0.298;2023-08-01T04:34:50;17.38;;;3.80;;
22614;SDS011;11474;50.790;0.298;2023-08-01T04:37:16;15.57;;;3.65;;
22614;SDS011;11474;50.790;0.298;2023-08-01T04:39:45;16.90;;;3.40;;
22614;SDS011;11474;50.790;0.298;2023-08-01T04:42:12;12.60;;;4.10;;
22614;SDS011;11474;50.790;0.298;2023-08-01T04:44:38;14.95;;;3.88;;
22614;SDS011;11474;50.790;0.298;2023-08-01T04:47:05;17.77;;;4.05;;
22614;SDS011;11474;50.790;0.298;2023-08-01T04:49:31;19.13;;;4.28;;
22614;SDS011;11474;50.790;0.298;2023-08-01T04:51:57;17.50;;;3.97;;
22614;SDS011;11474;50.790;0.298;2023-08-01T04:54:25;22.27;;;3.95;;
22614;SDS011;11474;50.790;0.298;2023-08-01T04:56:52;13.30;;;3.63;;
22614;SDS011;11474;50.790;0.298;2023-08-01T04:59:18;14.88;;;4.20;;
22614;SDS011;11474;50.790;0.298;2023-08-01T05:01:44;15.50;;;3.47;;
22614;SDS011;11474;50.790;0.298;2023-08-01T05:04:11;13.57;;;3.47;;
22614;SDS011;11474;50.790;0.298;2023-08-01T05:06:37;13.98;;;3.72;;
22614;SDS011;11474;50.790;0.298;2023-08-01T05:09:03;13.35;;;3.40;;
22614;SDS011;11474;50.790;0.298;2023-08-01T05:11:29;15.35;;;3.70;;
22614;SDS011;11474;50.790;0.298;2023-08-01T05:13:56;19.23;;;4.13;;
22614;SDS011;11474;50.790;0.298;2023-08-01T05:16:22;15.17;;;3.70;;
22614;SDS011;11474;50.790;0.298;2023-08-01T05:18:49;15.63;;;3.75;;
22614;SDS011;11474;50.790;0.298;2023-08-01T05:21:15;15.18;;;3.30;;
22614;SDS011;11474;50.790;0.298;2023-08-01T05:23:41;19.08;;;4.25;;
22614;SDS011;11474;50.790;0.298;2023-08-01T05:26:08;17.08;;;3.83;;
22614;SDS011;11474;50.790;0.298;2023-08-01T05:28:34;16.25;;;3.88;;
22614;SDS011;11474;50.790;0.298;2023-08-01T05:31:01;20.27;;;4.35;;
22614;SDS011;11474;50.790;0.298;2023-08-01T05:33:27;16.77;;;4.47;;
22614;SDS011;11474;50.790;0.298;2023-08-01T05:35:53;15.05;;;3.72;;
22614;SDS011;11474;50.790;0.298;2023-08-01T05:38:20;15.97;;;3.97;;
22614;SDS011;11474;50.790;0.298;2023-08-01T05:40:46;15.20;;;4.30;;
22614;SDS011;11474;50.790;0.298;2023-08-01T05:43:13;19.58;;;4.03;;
22614;SDS011;11474;50.790;0.298;2023-08-01T05:45:39;12.02;;;3.85;;
22614;SDS011;11474;50.790;0.298;2023-08-01T05:48:05;16.00;;;3.97;;
22614;SDS011;11474;50.790;0.298;2023-08-01T05:50:31;14.82;;;3.75;;
22614;SDS011;11474;50.790;0.298;2023-08-01T05:52:58;15.95;;;3.70;;
22614;SDS011;11474;50.790;0.298;2023-08-01T05:55:24;18.58;;;4.10;;
22614;SDS011;11474;50.790;0.298;2023-08-01T05:57:51;19.47;;;4.03;;
22614;SDS011;11474;50.790;0.298;2023-08-01T06:00:18;16.95;;;4.00;;
22614;SDS011;11474;50.790;0.298;2023-08-01T06:02:46;18.63;;;3.85;;
22614;SDS011;11474;50.790;0.298;2023-08-01T06:05:12;19.23;;;3.92;;
22614;SDS011;11474;50.790;0.298;2023-08-01T06:07:39;19.65;;;3.70;;
22614;SDS011;11474;50.790;0.298;2023-08-01T06:10:05;16.75;;;3.67;;
22614;SDS011;11474;50.790;0.298;2023-08-01T06:12:32;16.38;;;4.00;;
22614;SDS011;11474;50.790;0.298;2023-08-01T06:14:58;15.35;;;3.97;;
22614;SDS011;11474;50.790;0.298;2023-08-01T06:17:24;16.65;;;3.97;;
22614;SDS011;11474;50.790;0.298;2023-08-01T06:19:51;16.92;;;4.05;;
22614;SDS011;11474;50.790;0.298;2023-08-01T06:22:19;19.23;;;4.20;;
22614;SDS011;11474;50.790;0.298;2023-08-01T06:24:46;19.10;;;4.03;;
22614;SDS011;11474;50.790;0.298;2023-08-01T06:27:12;16.50;;;4.00;;
22614;SDS011;11474;50.790;0.298;2023-08-01T06:29:40;12.60;;;3.63;;
22614;SDS011;11474;50.790;0.298;2023-08-01T06:32:07;15.40;;;3.97;;
22614;SDS011;11474;50.790;0.298;2023-08-01T06:34:33;12.95;;;3.30;;
22614;SDS011;11474;50.790;0.298;2023-08-01T06:36:59;15.68;;;3.63;;
22614;SDS011;11474;50.790;0.298;2023-08-01T06:39:26;15.80;;;4.05;;
22614;SDS011;11474;50.790;0.298;2023-08-01T06:41:53;15.55;;;4.00;;
22614;SDS011;11474;50.790;0.298;2023-08-01T06:44:19;14.32;;;3.20;;
22614;SDS011;11474;50.790;0.298;2023-08-01T06:46:45;15.20;;;3.55;;
22614;SDS011;11474;50.790;0.298;2023-08-01T06:49:12;12.27;;;3.35;;
22614;SDS011;11474;50.790;0.298;2023-08-01T06:51:38;16.97;;;4.17;;
22614;SDS011;11474;50.790;0.298;2023-08-01T06:54:07;16.65;;;3.70;;
22614;SDS011;11474;50.790;0.298;2023-08-01T06:56:33;14.90;;;3.58;;
22614;SDS011;11474;50.790;0.298;2023-08-01T06:59:00;19.33;;;3.40;;
22614;SDS011;11474;50.790;0.298;2023-08-01T07:01:26;18.52;;;3.40;;
22614;SDS011;11474;50.790;0.298;2023-08-01T07:03:53;14.23;;;3.60;;
22614;SDS011;11474;50.790;0.298;2023-08-01T07:06:21;15.63;;;3.73;;
22614;SDS011;11474;50.790;0.298;2023-08-01T07:08:47;16.02;;;3.60;;
22614;SDS011;11474;50.790;0.298;2023-08-01T07:11:14;14.90;;;4.07;;
22614;SDS011;11474;50.790;0.298;2023-08-01T07:13:40;21.30;;;4.43;;
22614;SDS011;11474;50.790;0.298;2023-08-01T07:16:09;15.45;;;3.50;;
22614;SDS011;11474;50.790;0.298;2023-08-01T07:18:35;15.90;;;3.97;;
22614;SDS011;11474;50.790;0.298;2023-08-01T07:21:02;15.68;;;4.00;;
22614;SDS011;11474;50.790;0.298;2023-08-01T07:23:29;17.80;;;4.63;;
22614;SDS011;11474;50.790;0.298;2023-08-01T07:25:55;14.73;;;3.70;;
22614;SDS011;11474;50.790;0.298;2023-08-01T07:28:21;13.80;;;3.40;;
22614;SDS011;11474;50.790;0.298;2023-08-01T07:30:48;17.23;;;3.85;;
22614;SDS011;11474;50.790;0.298;2023-08-01T07:33:14;15.63;;;3.58;;
22614;SDS011;11474;50.790;0.298;2023-08-01T07:35:40;16.33;;;3.38;;
22614;SDS011;11474;50.790;0.298;2023-08-01T07:38:06;16.88;;;3.80;;
22614;SDS011;11474;50.790;0.298;2023-08-01T07:40:35;18.60;;;3.75;;
22614;SDS011;11474;50.790;0.298;2023-08-01T07:43:02;14.67;;;3.67;;
22614;SDS011;11474;50.790;0.298;2023-08-01T07:45:28;17.40;;;3.63;;
22614;SDS011;11474;50.790;0.298;2023-08-01T07:47:54;16.57;;;3.87;;
22614;SDS011;11474;50.790;0.298;2023-08-01T07:50:20;11.48;;;3.05;;
22614;SDS011;11474;50.790;0.298;2023-08-01T07:52:47;10.95;;;2.65;;
22614;SDS011;11474;50.790;0.298;2023-08-01T07:55:13;14.02;;;3.00;;
22614;SDS011;11474;50.790;0.298;2023-08-01T07:57:40;9.65;;;2.67;;
22614;SDS011;11474;50.790;0.298;2023-08-01T08:00:07;15.13;;;3.10;;
22614;SDS011;11474;50.790;0.298;2023-08-01T08:02:34;14.32;;;3.20;;
22614;SDS011;11474;50.790;0.298;2023-08-01T08:05:01;12.60;;;3.00;;
22614;SDS011;11474;50.790;0.298;2023-08-01T08:07:27;9.93;;;2.50;;
22614;SDS011;11474;50.790;0.298;2023-08-01T08:09:53;9.00;;;2.45;;
22614;SDS011;11474;50.790;0.298;2023-08-01T08:12:23;11.38;;;2.60;;
22614;SDS011;11474;50.790;0.298;2023-08-01T08:14:49;7.32;;;2.28;;
22614;SDS011;11474;50.790;0.298;2023-08-01T08:17:16;8.65;;;2.80;;
22614;SDS011;11474;50.790;0.298;2023-08-01T08:19:42;8.30;;;2.60;;
22614;SDS011;11474;50.790;0.298;2023-08-01T08:22:08;10.05;;;2.78;;
22614;SDS011;11474;50.790;0.298;2023-08-01T08:24:35;8.75;;;2.22;;
22614;SDS011;11474;50.790;0.298;2023-08-01T08:27:01;9.65;;;2.60;;
22614;SDS011;11474;50.790;0.298;2023-08-01T08:29:27;9.32;;;2.38;;
22614;SDS011;11474;50.790;0.298;2023-08-01T08:31:54;13.70;;;2.58;;
22614;SDS011;11474;50.790;0.298;2023-08-01T08:34:20;12.00;;;2.80;;
22614;SDS011;11474;50.790;0.298;2023-08-01T08:36:46;9.80;;;2.60;;
22614;SDS011;11474;50.790;0.298;2023-08-01T08:39:12;8.85;;;2.40;;
22614;SDS011;11474;50.790;0.298;2023-08-01T08:41:41;16.77;;;3.30;;
22614;SDS011;11474;50.790;0.298;2023-08-01T08:44:08;13.20;;;2.92;;
22614;SDS011;11474;50.790;0.298;2023-08-01T08:46:38;14.75;;;2.92;;
22614;SDS011;11474;50.790;0.298;2023-08-01T08:49:07;9.18;;;2.60;;
22614;SDS011;11474;50.790;0.298;2023-08-01T08:51:34;11.80;;;2.70;;
22614;SDS011;11474;50.790;0.298;2023-08-01T08:54:01;11.52;;;3.00;;
22614;SDS011;11474;50.790;0.298;2023-08-01T08:56:28;12.18;;;3.08;;
22614;SDS011;11474;50.790;0.298;2023-08-01T08:58:55;14.43;;;2.92;;
22614;SDS011;11474;50.790;0.298;2023-08-01T09:01:22;11.13;;;3.20;;
22614;SDS011;11474;50.790;0.298;2023-08-01T09:03:48;11.93;;;2.80;;
22614;SDS011;11474;50.790;0.298;2023-08-01T09:06:15;8.93;;;2.85;;
22614;SDS011;11474;50.790;0.298;2023-08-01T09:08:53;15.98;;;3.22;;
22614;SDS011;11474;50.790;0.298;2023-08-01T09:11:21;12.60;;;2.80;;
22614;SDS011;11474;50.790;0.298;2023-08-01T09:13:47;15.37;;;3.07;;
22614;SDS011;11474;50.790;0.298;2023-08-01T09:16:14;14.73;;;3.10;;
22614;SDS011;11474;50.790;0.298;2023-08-01T09:18:48;12.80;;;2.93;;
22614;SDS011;11474;50.790;0.298;2023-08-01T09:21:14;11.70;;;3.05;;
22614;SDS011;11474;50.790;0.298;2023-08-01T09:23:41;12.77;;;3.30;;
22614;SDS011;11474;50.790;0.298;2023-08-01T09:26:16;14.63;;;3.40;;
22614;SDS011;11474;50.790;0.298;2023-08-01T09:28:43;17.85;;;3.53;;
22614;SDS011;11474;50.790;0.298;2023-08-01T09:31:10;12.00;;;3.05;;
22614;SDS011;11474;50.790;0.298;2023-08-01T09:33:42;13.00;;;3.40;;
22614;SDS011;11474;50.790;0.298;2023-08-01T09:36:08;11.40;;;3.10;;
22614;SDS011;11474;50.790;0.298;2023-08-01T09:38:35;12.55;;;3.17;;
22614;SDS011;11474;50.790;0.298;2023-08-01T09:41:05;10.70;;;3.00;;
22614;SDS011;11474;50.790;0.298;2023-08-01T09:43:34;15.15;;;3.67;;
22614;SDS011;11474;50.790;0.298;2023-08-01T09:46:01;17.50;;;3.35;;
22614;SDS011;11474;50.790;0.298;2023-08-01T09:48:28;10.95;;;3.30;;
22614;SDS011;11474;50.790;0.298;2023-08-01T09:51:10;12.02;;;3.08;;
22614;SDS011;11474;50.790;0.298;2023-08-01T09:53:53;14.13;;;3.55;;
22614;SDS011;11474;50.790;0.298;2023-08-01T09:56:21;16.52;;;3.83;;
22614;SDS011;11474;50.790;0.298;2023-08-01T09:58:48;12.50;;;3.67;;
22614;SDS011;11474;50.790;0.298;2023-08-01T10:01:17;12.38;;;3.35;;
22614;SDS011;11474;50.790;0.298;2023-08-01T10:03:45;17.70;;;3.17;;
22614;SDS011;11474;50.790;0.298;2023-08-01T10:06:19;13.35;;;3.30;;
22614;SDS011;11474;50.790;0.298;2023-08-01T10:08:46;14.95;;;3.40;;
22614;SDS011;11474;50.790;0.298;2023-08-01T10:11:14;12.85;;;3.28;;
22614;SDS011;11474;50.790;0.298;2023-08-01T10:13:44;12.55;;;3.65;;
22614;SDS011;11474;50.790;0.298;2023-08-01T10:16:11;13.25;;;3.22;;
22614;SDS011;11474;50.790;0.298;2023-08-01T10:18:37;21.20;;;3.72;;
22614;SDS011;11474;50.790;0.298;2023-08-01T10:21:07;17.17;;;3.83;;
22614;SDS011;11474;50.790;0.298;2023-08-01T10:23:34;16.98;;;3.55;;
22614;SDS011;11474;50.790;0.298;2023-08-01T10:26:01;16.20;;;4.20;;
22614;SDS011;11474;50.790;0.298;2023-08-01T10:28:39;16.98;;;3.60;;
22614;SDS011;11474;50.790;0.298;2023-08-01T10:33:34;14.20;;;3.20;;
22614;SDS011;11474;50.790;0.298;2023-08-01T10:36:01;10.30;;;3.33;;
22614;SDS011;11474;50.790;0.298;2023-08-01T10:38:44;15.68;;;3.20;;
22614;SDS011;11474;50.790;0.298;2023-08-01T10:41:20;14.07;;;3.45;;
22614;SDS011;11474;50.790;0.298;2023-08-01T10:43:46;18.58;;;3.63;;
22614;SDS011;11474;50.790;0.298;2023-08-01T10:46:12;14.83;;;3.50;;
22614;SDS011;11474;50.790;0.298;2023-08-01T10:48:51;16.48;;;3.17;;
22614;SDS011;11474;50.790;0.298;2023-08-01T10:51:18;15.50;;;3.55;;
22614;SDS011;11474;50.790;0.298;2023-08-01T10:53:44;13.88;;;3.47;;
22614;SDS011;11474;50.790;0.298;2023-08-01T10:56:15;16.73;;;3.30;;
22614;SDS011;11474;50.790;0.298;2023-08-01T10:58:42;19.17;;;3.78;;
22614;SDS011;11474;50.790;0.298;2023-08-01T11:01:08;19.27;;;4.05;;
22614;SDS011;11474;50.790;0.298;2023-08-01T11:03:38;14.50;;;3.33;;
22614;SDS011;11474;50.790;0.298;2023-08-01T11:06:06;16.83;;;3.38;;
22614;SDS011;11474;50.790;0.298;2023-08-01T11:08:39;17.08;;;3.50;;
22614;SDS011;11474;50.790;0.298;2023-08-01T11:11:07;21.13;;;3.75;;
22614;SDS011;11474;50.790;0.298;2023-08-01T11:13:34;18.08;;;3.88;;
22614;SDS011;11474;50.790;0.298;2023-08-01T11:16:04;16.57;;;3.60;;
22614;SDS011;11474;50.790;0.298;2023-08-01T11:18:41;15.93;;;3.65;;
22614;SDS011;11474;50.790;0.298;2023-08-01T11:21:07;16.53;;;3.37;;
22614;SDS011;11474;50.790;0.298;2023-08-01T11:23:33;12.98;;;3.40;;
22614;SDS011;11474;50.790;0.298;2023-08-01T11:26:05;13.68;;;3.13;;
22614;SDS011;11474;50.790;0.298;2023-08-01T11:28:32;17.17;;;3.33;;
22614;SDS011;11474;50.790;0.298;2023-08-01T11:30:58;18.98;;;3.63;;
22614;SDS011;11474;50.790;0.298;2023-08-01T11:33:24;10.82;;;2.80;;
22614;SDS011;11474;50.790;0.298;2023-08-01T11:35:51;15.45;;;3.22;;
22614;SDS011;11474;50.790;0.298;2023-08-01T11:38:19;13.00;;;2.80;;
22614;SDS011;11474;50.790;0.298;2023-08-01T11:40:47;12.60;;;3.13;;
22614;SDS011;11474;50.790;0.298;2023-08-01T11:43:14;12.63;;;2.63;;
22614;SDS011;11474;50.790;0.298;2023-08-01T11:45:51;11.55;;;2.42;;
22614;SDS011;11474;50.790;0.298;2023-08-01T11:48:17;9.98;;;2.53;;
22614;SDS011;11474;50.790;0.298;2023-08-01T11:50:44;11.52;;;2.40;;
22614;SDS011;11474;50.790;0.298;2023-08-01T11:53:20;14.27;;;3.72;;
22614;SDS011;11474;50.790;0.298;2023-08-01T11:55:46;9.32;;;2.60;;
22614;SDS011;11474;50.790;0.298;2023-08-01T11:58:13;11.40;;;2.60;;
22614;SDS011;11474;50.790;0.298;2023-08-01T12:00:39;10.25;;;2.85;;
22614;SDS011;11474;50.790;0.298;2023-08-01T12:03:07;12.30;;;3.00;;
22614;SDS011;11474;50.790;0.298;2023-08-01T12:05:38;13.23;;;3.13;;
22614;SDS011;11474;50.790;0.298;2023-08-01T12:08:13;15.45;;;3.50;;
22614;SDS011;11474;50.790;0.298;2023-08-01T12:10:40;12.20;;;3.33;;
22614;SDS011;11474;50.790;0.298;2023-08-01T12:13:07;13.13;;;2.60;;
22614;SDS011;11474;50.790;0.298;2023-08-01T12:15:44;13.00;;;3.00;;
22614;SDS011;11474;50.790;0.298;2023-08-01T12:18:18;16.25;;;3.45;;
22614;SDS011;11474;50.790;0.298;2023-08-01T12:20:45;24.57;;;4.30;;
22614;SDS011;11474;50.790;0.298;2023-08-01T12:23:11;18.45;;;4.07;;
22614;SDS011;11474;50.790;0.298;2023-08-01T12:25:37;20.13;;;4.47;;
22614;SDS011;11474;50.790;0.298;2023-08-01T12:28:04;24.48;;;4.85;;
22614;SDS011;11474;50.790;0.298;2023-08-01T12:30:30;23.40;;;5.28;;
22614;SDS011;11474;50.790;0.298;2023-08-01T12:32:56;20.13;;;4.78;;
22614;SDS011;11474;50.790;0.298;2023-08-01T12:35:23;18.35;;;4.05;;
22614;SDS011;11474;50.790;0.298;2023-08-01T12:37:49;24.48;;;5.00;;
22614;SDS011;11474;50.790;0.298;2023-08-01T12:40:17;20.65;;;5.00;;
22614;SDS011;11474;50.790;0.298;2023-08-01T12:42:43;25.83;;;5.32;;
22614;SDS011;11474;50.790;0.298;2023-08-01T12:45:09;18.50;;;4.15;;
22614;SDS011;11474;50.790;0.298;2023-08-01T12:47:36;14.97;;;3.40;;
22614;SDS011;11474;50.790;0.298;2023-08-01T12:50:02;22.45;;;4.47;;
22614;SDS011;11474;50.790;0.298;2023-08-01T12:52:28;18.83;;;4.85;;
22614;SDS011;11474;50.790;0.298;2023-08-01T12:54:55;21.48;;;4.53;;
22614;SDS011;11474;50.790;0.298;2023-08-01T12:57:21;25.63;;;5.65;;
22614;SDS011;11474;50.790;0.298;2023-08-01T12:59:48;21.30;;;4.68;;
22614;SDS011;11474;50.790;0.298;2023-08-01T13:02:14;23.70;;;4.13;;
22614;SDS011;11474;50.790;0.298;2023-08-01T13:04:41;20.08;;;4.53;;
22614;SDS011;11474;50.790;0.298;2023-08-01T13:07:08;23.98;;;5.43;;
22614;SDS011;11474;50.790;0.298;2023-08-01T13:09:34;27.35;;;5.68;;
22614;SDS011;11474;50.790;0.298;2023-08-01T13:12:00;21.73;;;4.40;;
22614;SDS011;11474;50.790;0.298;2023-08-01T13:14:26;22.15;;;4.70;;
22614;SDS011;11474;50.790;0.298;2023-08-01T13:16:53;24.25;;;5.15;;
22614;SDS011;11474;50.790;0.298;2023-08-01T13:19:19;19.55;;;4.70;;
22614;SDS011;11474;50.790;0.298;2023-08-01T13:21:46;19.58;;;4.57;;
22614;SDS011;11474;50.790;0.298;2023-08-01T13:24:12;24.50;;;4.68;;
22614;SDS011;11474;50.790;0.298;2023-08-01T13:26:38;25.58;;;5.40;;
22614;SDS011;11474;50.790;0.298;2023-08-01T13:29:05;23.13;;;5.25;;
22614;SDS011;11474;50.790;0.298;2023-08-01T13:31:34;24.58;;;4.72;;
22614;SDS011;11474;50.790;0.298;2023-08-01T13:34:00;27.40;;;5.82;;
22614;SDS011;11474;50.790;0.298;2023-08-01T13:36:27;20.98;;;5.00;;
22614;SDS011;11474;50.790;0.298;2023-08-01T13:38:54;19.87;;;4.53;;
22614;SDS011;11474;50.790;0.298;2023-08-01T13:41:20;17.83;;;4.20;;
22614;SDS011;11474;50.790;0.298;2023-08-01T13:43:47;23.88;;;5.03;;
22614;SDS011;11474;50.790;0.298;2023-08-01T13:46:15;20.92;;;4.72;;
22614;SDS011;11474;50.790;0.298;2023-08-01T13:48:41;22.70;;;4.70;;
22614;SDS011;11474;50.790;0.298;2023-08-01T13:51:08;19.40;;;4.43;;
22614;SDS011;11474;50.790;0.298;2023-08-01T13:53:35;23.40;;;5.20;;
22614;SDS011;11474;50.790;0.298;2023-08-01T13:56:12;23.50;;;5.30;;
22614;SDS011;11474;50.790;0.298;2023-08-01T13:58:39;26.50;;;5.15;;
22614;SDS011;11474;50.790;0.298;2023-08-01T14:01:06;19.20;;;4.43;;
22614;SDS011;11474;50.790;0.298;2023-08-01T14:03:36;18.05;;;4.57;;
22614;SDS011;11474;50.790;0.298;2023-08-01T14:06:03;19.63;;;5.30;;
22614;SDS011;11474;50.790;0.298;2023-08-01T14:08:30;16.67;;;4.35;;
22614;SDS011;11474;50.790;0.298;2023-08-01T14:10:57;20.90;;;4.78;;
22614;SDS011;11474;50.790;0.298;2023-08-01T14:13:23;22.70;;;4.70;;
22614;SDS011;11474;50.790;0.298;2023-08-01T14:15:49;22.90;;;5.30;;
22614;SDS011;11474;50.790;0.298;2023-08-01T14:18:16;23.30;;;4.65;;
22614;SDS011;11474;50.790;0.298;2023-08-01T14:20:43;24.63;;;5.15;;
22614;SDS011;11474;50.790;0.298;2023-08-01T14:23:09;25.17;;;5.65;;
22614;SDS011;11474;50.790;0.298;2023-08-01T14:25:35;23.77;;;5.07;;
22614;SDS011;11474;50.790;0.298;2023-08-01T14:28:03;21.50;;;5.63;;
22614;SDS011;11474;50.790;0.298;2023-08-01T14:30:32;26.27;;;5.95;;
22614;SDS011;11474;50.790;0.298;2023-08-01T14:32:59;25.02;;;5.10;;
22614;SDS011;11474;50.790;0.298;2023-08-01T14:35:26;25.55;;;5.40;;
22614;SDS011;11474;50.790;0.298;2023-08-01T14:37:52;24.00;;;6.05;;